sensor_id;sensor_type;location;lat;lon;timestamp;pressure;altitude;pressure_sealevel;temperature;humidity
78123;BME280;67376;44.802;10.332;2023-02-01T20:22:08;101407.34;;;18.18;43.38
78123;BME280;67376;44.802;10.332;2023-02-01T20:24:33;101412.06;;;17.89;43.69
78123;BME280;67376;44.802;10.332;2023-02-01T20:26:59;101414.28;;;17.72;44.25
78123;BME280;67376;44.802;10.332;2023-02-01T20:29:24;101416.44;;;17.49;44.70
78123;BME280;67376;44.802;10.332;2023-02-01T20:31:50;101406.81;;;17.40;44.70
78123;BME280;67376;44.802;10.332;2023-02-01T20:34:15;101408.44;;;17.34;45.13
78123;BME280;67376;44.802;10.332;2023-02-01T20:36:41;101397.41;;;17.23;45.18
78123;BME280;67376;44.802;10.332;2023-02-01T20:39:06;101397.22;;;17.24;45.02
78123;BME280;67376;44.802;10.332;2023-02-01T20:41:32;101401.13;;;17.22;46.12
78123;BME280;67376;44.802;10.332;2023-02-01T20:43:57;101404.88;;;17.21;46.26
78123;BME280;67376;44.802;10.332;2023-02-01T20:46:23;101413.34;;;17.17;45.89
78123;BME280;67376;44.802;10.332;2023-02-01T20:48:49;101410.03;;;17.15;45.81
78123;BME280;67376;44.802;10.332;2023-02-01T20:51:17;101413.94;;;17.13;45.42
78123;BME280;67376;44.802;10.332;2023-02-01T20:53:43;101423.03;;;17.05;45.38
78123;BME280;67376;44.802;10.332;2023-02-01T20:56:12;101425.34;;;17.08;44.54
78123;BME280;67376;44.802;10.332;2023-02-01T20:58:37;101427.09;;;17.23;44.46
78123;BME280;67376;44.802;10.332;2023-02-01T21:01:03;101422.72;;;17.22;44.42
78123;BME280;67376;44.802;10.332;2023-02-01T21:03:29;101441.53;;;17.08;44.41
78123;BME280;67376;44.802;10.332;2023-02-01T21:05:56;101435.63;;;16.98;44.86
78123;BME280;67376;44.802;10.332;2023-02-01T21:08:24;101437.06;;;16.94;44.60
78123;BME280;67376;44.802;10.332;2023-02-01T21:12:59;101436.19;;;17.56;45.23
78123;BME280;67376;44.802;10.332;2023-02-01T21:15:25;101435.75;;;17.53;45.60
78123;BME280;67376;44.802;10.332;2023-02-01T21:17:51;101443.47;;;17.56;45.46
78123;BME280;67376;44.802;10.332;2023-02-01T21:20:17;101444.88;;;17.52;45.07
78123;BME280;67376;44.802;10.332;2023-02-01T21:22:43;101445.91;;;17.50;46.04
78123;BME280;67376;44.802;10.332;2023-02-01T21:25:09;101443.63;;;17.47;45.49
78123;BME280;67376;44.802;10.332;2023-02-01T21:27:34;101435.53;;;17.47;45.45
78123;BME280;67376;44.802;10.332;2023-02-01T21:30:00;101450.50;;;17.50;45.50
78123;BME280;67376;44.802;10.332;2023-02-01T21:32:25;101439.88;;;17.48;46.14
78123;BME280;67376;44.802;10.332;2023-02-01T21:34:51;101448.81;;;17.49;45.52
78123;BME280;67376;44.802;10.332;2023-02-01T21:37:17;101448.63;;;17.50;46.28
78123;BME280;67376;44.802;10.332;2023-02-01T21:39:43;101442.38;;;17.50;46.59
78123;BME280;67376;44.802;10.332;2023-02-01T21:42:09;101443.41;;;17.49;46.18
78123;BME280;67376;44.802;10.332;2023-02-01T21:44:46;101448.22;;;17.54;45.34
78123;BME280;67376;44.802;10.332;2023-02-01T21:47:13;101449.25;;;17.53;45.77
78123;BME280;67376;44.802;10.332;2023-02-01T21:49:41;101447.38;;;17.53;45.49
78123;BME280;67376;44.802;10.332;2023-02-01T21:52:07;101450.09;;;17.53;45.56
78123;BME280;67376;44.802;10.332;2023-02-01T21:54:33;101449.47;;;17.51;45.74
78123;BME280;67376;44.802;10.332;2023-02-01T21:56:59;101444.69;;;17.53;45.34
78123;BME280;67376;44.802;10.332;2023-02-01T21:59:24;101438.06;;;17.56;45.75
78123;BME280;67376;44.802;10.332;2023-02-01T22:01:49;101435.94;;;17.51;45.62
78123;BME280;67376;44.802;10.332;2023-02-01T22:04:15;101428.69;;;17.52;45.10
78123;BME280;67376;44.802;10.332;2023-02-01T22:06:42;101434.28;;;17.50;45.98
78123;BME280;67376;44.802;10.332;2023-02-01T22:09:21;101432.81;;;17.47;45.29
78123;BME280;67376;44.802;10.332;2023-02-01T22:11:47;101439.25;;;17.46;45.87
78123;BME280;67376;44.802;10.332;2023-02-01T22:14:13;101441.75;;;17.48;45.62
78123;BME280;67376;44.802;10.332;2023-02-01T22:16:40;101443.03;;;17.52;45.95
78123;BME280;67376;44.802;10.332;2023-02-01T22:19:05;101442.78;;;17.47;45.49
78123;BME280;67376;44.802;10.332;2023-02-01T22:21:31;101447.78;;;17.50;46.52
78123;BME280;67376;44.802;10.332;2023-02-01T22:23:57;101452.34;;;17.49;45.60
78123;BME280;67376;44.802;10.332;2023-02-01T22:26:26;101458.97;;;17.47;45.54
78123;BME280;67376;44.802;10.332;2023-02-01T22:28:52;101461.47;;;17.48;46.00
78123;BME280;67376;44.802;10.332;2023-02-01T22:31:18;101465.84;;;17.49;45.43
78123;BME280;67376;44.802;10.332;2023-02-01T22:33:45;101466.47;;;17.52;46.36
78123;BME280;67376;44.802;10.332;2023-02-01T22:36:11;101456.91;;;17.49;46.16
78123;BME280;67376;44.802;10.332;2023-02-01T22:38:37;101466.88;;;17.48;46.22
78123;BME280;67376;44.802;10.332;2023-02-01T22:41:04;101465.66;;;17.51;46.12
78123;BME280;67376;44.802;10.332;2023-02-01T22:43:30;101468.75;;;17.48;46.22
78123;BME280;67376;44.802;10.332;2023-02-01T22:46:00;101463.97;;;17.50;45.52
78123;BME280;67376;44.802;10.332;2023-02-01T22:48:27;101468.31;;;17.44;46.06
78123;BME280;67376;44.802;10.332;2023-02-01T22:50:59;101468.31;;;17.44;45.57
78123;BME280;67376;44.802;10.332;2023-02-01T22:53:26;101457.94;;;17.48;45.44
78123;BME280;67376;44.802;10.332;2023-02-01T22:55:52;101461.28;;;17.50;45.81
78123;BME280;67376;44.802;10.332;2023-02-01T22:58:18;101466.88;;;17.48;45.66
78123;BME280;67376;44.802;10.332;2023-02-01T23:00:44;101477.03;;;17.46;45.39
78123;BME280;67376;44.802;10.332;2023-02-01T23:03:09;101471.44;;;17.48;45.43
78123;BME280;67376;44.802;10.332;2023-02-01T23:05:35;101466.44;;;17.45;45.99
78123;BME280;67376;44.802;10.332;2023-02-01T23:08:00;101476.66;;;17.49;45.55
78123;BME280;67376;44.802;10.332;2023-02-01T23:10:26;101477.25;;;17.45;45.59
78123;BME280;67376;44.802;10.332;2023-02-01T23:12:51;101473.50;;;17.46;45.52
78123;BME280;67376;44.802;10.332;2023-02-01T23:15:17;101472.88;;;17.44;45.20
78123;BME280;67376;44.802;10.332;2023-02-01T23:17:44;101468.31;;;17.44;45.52
78123;BME280;67376;44.802;10.332;2023-02-01T23:20:13;101459.81;;;17.47;45.69
78123;BME280;67376;44.802;10.332;2023-02-01T23:22:44;101456.25;;;17.40;45.41
78123;BME280;67376;44.802;10.332;2023-02-01T23:25:11;101462.50;;;17.47;45.80
78123;BME280;67376;44.802;10.332;2023-02-01T23:27:36;101454.41;;;17.47;45.92
78123;BME280;67376;44.802;10.332;2023-02-01T23:30:03;101460.22;;;17.44;45.84
78123;BME280;67376;44.802;10.332;2023-02-01T23:32:31;101462.50;;;17.47;45.58
78123;BME280;67376;44.802;10.332;2023-02-01T23:34:58;101448.59;;;17.44;45.79
78123;BME280;67376;44.802;10.332;2023-02-01T23:37:23;101456.69;;;17.44;45.54
78123;BME280;67376;44.802;10.332;2023-02-01T23:39:49;101455.59;;;17.38;45.65
78123;BME280;67376;44.802;10.332;2023-02-01T23:42:16;101452.50;;;17.41;45.69
78123;BME280;67376;44.802;10.332;2023-02-01T23:44:41;101451.88;;;17.39;45.79
78123;BME280;67376;44.802;10.332;2023-02-01T23:47:08;101454.81;;;17.44;45.49
78123;BME280;67376;44.802;10.332;2023-02-01T23:49:34;101457.31;;;17.46;45.56
78123;BME280;67376;44.802;10.332;2023-02-01T23:51:59;101452.50;;;17.41;46.09
78123;BME280;67376;44.802;10.332;2023-02-01T23:54:24;101449.19;;;17.39;46.13
78123;BME280;67376;44.802;10.332;2023-02-01T23:56:50;101450.44;;;17.43;45.65
78123;BME280;67376;44.802;10.332;2023-02-01T23:59:20;101443.19;;;17.44;45.60
